sensor_id;sensor_type;location;lat;lon;timestamp;pressure;altitude;pressure_sealevel;temperature;humidity
38227;BME280;24026;49.446;8.576;2024-02-26T00:01:56;98578.69;;;12.69;42.45
38227;BME280;24026;49.446;8.576;2024-02-26T00:04:17;98579.78;;;12.68;42.32
38227;BME280;24026;49.446;8.576;2024-02-26T00:06:38;98576.00;;;12.69;42.53
38227;BME280;24026;49.446;8.576;2024-02-26T00:09:01;98567.25;;;12.69;42.36
38227;BME280;24026;49.446;8.576;2024-02-26T00:11:22;98555.78;;;12.68;42.48
38227;BME280;24026;49.446;8.576;2024-02-26T00:13:43;98555.78;;;12.68;42.45
38227;BME280;24026;49.446;8.576;2024-02-26T00:16:04;98549.66;;;12.68;42.35
38227;BME280;24026;49.446;8.576;2024-02-26T00:18:24;98544.31;;;12.68;42.33
38227;BME280;24026;49.446;8.576;2024-02-26T00:20:44;98547.00;;;12.68;42.33
38227;BME280;24026;49.446;8.576;2024-02-26T00:23:05;98558.47;;;12.68;42.54
38227;BME280;24026;49.446;8.576;2024-02-26T00:25:25;98564.88;;;12.67;42.37
38227;BME280;24026;49.446;8.576;2024-02-26T00:27:46;98574.75;;;12.67;42.54
38227;BME280;24026;49.446;8.576;2024-02-26T00:30:06;98580.09;;;12.67;42.51
38227;BME280;24026;49.446;8.576;2024-02-26T00:32:27;98579.28;;;12.66;42.45
38227;BME280;24026;49.446;8.576;2024-02-26T00:34:47;98583.03;;;12.65;42.61
38227;BME280;24026;49.446;8.576;2024-02-26T00:37:08;98584.94;;;12.65;42.76
38227;BME280;24026;49.446;8.576;2024-02-26T00:39:28;98592.91;;;12.65;42.56
38227;BME280;24026;49.446;8.576;2024-02-26T00:41:48;98588.38;;;12.65;42.38
38227;BME280;24026;49.446;8.576;2024-02-26T00:44:09;98586.00;;;12.64;42.70
38227;BME280;24026;49.446;8.576;2024-02-26T00:46:29;98587.59;;;12.65;42.49
38227;BME280;24026;49.446;8.576;2024-02-26T00:48:50;98595.59;;;12.65;42.48
38227;BME280;24026;49.446;8.576;2024-02-26T00:51:10;98594.00;;;12.64;42.53
38227;BME280;24026;49.446;8.576;2024-02-26T00:53:31;98589.44;;;12.64;42.74
38227;BME280;24026;49.446;8.576;2024-02-26T00:55:52;98594.78;;;12.64;42.68
38227;BME280;24026;49.446;8.576;2024-02-26T00:58:12;98595.06;;;12.63;42.70
38227;BME280;24026;49.446;8.576;2024-02-26T01:00:32;98588.66;;;12.64;42.71
38227;BME280;24026;49.446;8.576;2024-02-26T01:02:53;98586.78;;;12.64;42.64
38227;BME280;24026;49.446;8.576;2024-02-26T01:05:14;98591.34;;;12.64;42.57
38227;BME280;24026;49.446;8.576;2024-02-26T01:07:35;98598.56;;;12.63;42.80
38227;BME280;24026;49.446;8.576;2024-02-26T01:09:56;98602.00;;;12.64;42.67
38227;BME280;24026;49.446;8.576;2024-02-26T01:12:16;98600.41;;;12.63;42.83
38227;BME280;24026;49.446;8.576;2024-02-26T01:14:36;98605.72;;;12.63;42.79
38227;BME280;24026;49.446;8.576;2024-02-26T01:16:57;98604.19;;;12.62;42.66
38227;BME280;24026;49.446;8.576;2024-02-26T01:19:17;98598.84;;;12.62;42.68
38227;BME280;24026;49.446;8.576;2024-02-26T01:21:38;98600.69;;;12.61;42.85
38227;BME280;24026;49.446;8.576;2024-02-26T01:23:58;98603.38;;;12.61;42.57
38227;BME280;24026;49.446;8.576;2024-02-26T01:26:18;98613.25;;;12.60;42.82
38227;BME280;24026;49.446;8.576;2024-02-26T01:28:39;98623.63;;;12.62;43.01
38227;BME280;24026;49.446;8.576;2024-02-26T01:30:59;98623.91;;;12.60;42.67
38227;BME280;24026;49.446;8.576;2024-02-26T01:33:20;98623.13;;;12.60;42.92
38227;BME280;24026;49.446;8.576;2024-02-26T01:35:40;98639.91;;;12.60;42.78
38227;BME280;24026;49.446;8.576;2024-02-26T01:38:00;98627.34;;;12.61;42.79
38227;BME280;24026;49.446;8.576;2024-02-26T01:40:21;98628.47;;;12.60;42.79
38227;BME280;24026;49.446;8.576;2024-02-26T01:42:42;98639.13;;;12.60;42.92
38227;BME280;24026;49.446;8.576;2024-02-26T01:45:02;98638.31;;;12.59;42.88
38227;BME280;24026;49.446;8.576;2024-02-26T01:47:23;98637.22;;;12.60;42.95
38227;BME280;24026;49.446;8.576;2024-02-26T01:49:43;98638.31;;;12.59;43.05
38227;BME280;24026;49.446;8.576;2024-02-26T01:52:06;98632.19;;;12.59;42.98
38227;BME280;24026;49.446;8.576;2024-02-26T01:54:27;98640.19;;;12.59;42.88
38227;BME280;24026;49.446;8.576;2024-02-26T01:56:49;98647.41;;;12.58;42.89
38227;BME280;24026;49.446;8.576;2024-02-26T01:59:10;98643.97;;;12.58;42.88
38227;BME280;24026;49.446;8.576;2024-02-26T02:01:32;98650.06;;;12.58;43.08
38227;BME280;24026;49.446;8.576;2024-02-26T02:03:54;98657.28;;;12.58;42.91
38227;BME280;24026;49.446;8.576;2024-02-26T02:06:15;98651.97;;;12.58;43.13
38227;BME280;24026;49.446;8.576;2024-02-26T02:08:37;98650.38;;;12.57;43.08
38227;BME280;24026;49.446;8.576;2024-02-26T02:10:58;98653.81;;;12.57;43.22
38227;BME280;24026;49.446;8.576;2024-02-26T02:13:19;98655.69;;;12.57;43.42
38227;BME280;24026;49.446;8.576;2024-02-26T02:15:40;98654.09;;;12.56;43.08
38227;BME280;24026;49.446;8.576;2024-02-26T02:18:00;98643.44;;;12.56;43.26
38227;BME280;24026;49.446;8.576;2024-02-26T02:20:34;98650.66;;;12.55;43.29
38227;BME280;24026;49.446;8.576;2024-02-26T02:22:54;98650.94;;;12.54;43.21
38227;BME280;24026;49.446;8.576;2024-02-26T02:25:15;98654.41;;;12.54;43.41
38227;BME280;24026;49.446;8.576;2024-02-26T02:27:35;98652.53;;;12.55;43.43
38227;BME280;24026;49.446;8.576;2024-02-26T02:29:56;98653.63;;;12.54;43.32
38227;BME280;24026;49.446;8.576;2024-02-26T02:32:17;98658.16;;;12.53;43.42
38227;BME280;24026;49.446;8.576;2024-02-26T02:34:38;98652.84;;;12.53;43.74
38227;BME280;24026;49.446;8.576;2024-02-26T02:36:59;98655.50;;;12.53;43.64
38227;BME280;24026;49.446;8.576;2024-02-26T02:39:20;98660.03;;;12.53;43.77
38227;BME280;24026;49.446;8.576;2024-02-26T02:41:40;98652.03;;;12.53;43.65
38227;BME280;24026;49.446;8.576;2024-02-26T02:44:01;98653.13;;;12.52;43.78
38227;BME280;24026;49.446;8.576;2024-02-26T02:46:22;98651.53;;;12.51;43.93
38227;BME280;24026;49.446;8.576;2024-02-26T02:48:43;98660.34;;;12.51;43.85
38227;BME280;24026;49.446;8.576;2024-02-26T02:51:04;98653.44;;;12.50;43.77
38227;BME280;24026;49.446;8.576;2024-02-26T02:53:25;98656.09;;;12.50;43.88
38227;BME280;24026;49.446;8.576;2024-02-26T02:55:45;98662.50;;;12.49;44.00
38227;BME280;24026;49.446;8.576;2024-02-26T02:58:05;98661.72;;;12.49;44.19
38227;BME280;24026;49.446;8.576;2024-02-26T03:00:26;98666.25;;;12.48;44.20
38227;BME280;24026;49.446;8.576;2024-02-26T03:02:46;98663.59;;;12.48;44.27
38227;BME280;24026;49.446;8.576;2024-02-26T03:05:07;98659.03;;;12.49;44.54
38227;BME280;24026;49.446;8.576;2024-02-26T03:07:28;98659.34;;;12.47;44.14
38227;BME280;24026;49.446;8.576;2024-02-26T03:09:48;98662.00;;;12.47;44.29
38227;BME280;24026;49.446;8.576;2024-02-26T03:12:08;98661.50;;;12.45;44.19
38227;BME280;24026;49.446;8.576;2024-02-26T03:14:29;98665.75;;;12.46;44.33
38227;BME280;24026;49.446;8.576;2024-02-26T03:16:49;98668.41;;;12.46;44.57
38227;BME280;24026;49.446;8.576;2024-02-26T03:19:10;98660.75;;;12.45;44.57
38227;BME280;24026;49.446;8.576;2024-02-26T03:21:30;98664.47;;;12.44;44.45
38227;BME280;24026;49.446;8.576;2024-02-26T03:23:50;98666.84;;;12.45;44.47
38227;BME280;24026;49.446;8.576;2024-02-26T03:26:11;98661.81;;;12.44;44.51
38227;BME280;24026;49.446;8.576;2024-02-26T03:28:34;98667.44;;;12.42;44.63
38227;BME280;24026;49.446;8.576;2024-02-26T03:30:55;98673.53;;;12.42;44.61
38227;BME280;24026;49.446;8.576;2024-02-26T03:33:15;98673.53;;;12.42;44.51
38227;BME280;24026;49.446;8.576;2024-02-26T03:35:35;98670.88;;;12.42;44.66
38227;BME280;24026;49.446;8.576;2024-02-26T03:37:56;98669.81;;;12.44;44.85
38227;BME280;24026;49.446;8.576;2024-02-26T03:40:16;98673.53;;;12.42;44.79
38227;BME280;24026;49.446;8.576;2024-02-26T03:42:38;98676.50;;;12.41;44.78
38227;BME280;24026;49.446;8.576;2024-02-26T03:44:59;98670.38;;;12.40;44.86
38227;BME280;24026;49.446;8.576;2024-02-26T03:47:19;98668.50;;;12.41;45.06
38227;BME280;24026;49.446;8.576;2024-02-26T03:49:39;98664.28;;;12.40;45.08
38227;BME280;24026;49.446;8.576;2024-02-26T03:52:00;98666.94;;;12.40;45.11
38227;BME280;24026;49.446;8.576;2024-02-26T03:54:20;98659.25;;;12.38;45.39
38227;BME280;24026;49.446;8.576;2024-02-26T03:56:40;98665.34;;;12.39;44.97
38227;BME280;24026;49.446;8.576;2024-02-26T03:59:01;98658.13;;;12.39;45.23
38227;BME280;24026;49.446;8.576;2024-02-26T04:01:22;98660.03;;;12.39;45.12
38227;BME280;24026;49.446;8.576;2024-02-26T04:03:42;98656.56;;;12.38;45.38
38227;BME280;24026;49.446;8.576;2024-02-26T04:06:04;98653.13;;;12.38;45.48
38227;BME280;24026;49.446;8.576;2024-02-26T04:08:24;98654.22;;;12.37;45.52
38227;BME280;24026;49.446;8.576;2024-02-26T04:10:45;98645.44;;;12.36;45.53
38227;BME280;24026;49.446;8.576;2024-02-26T04:13:07;98640.09;;;12.36;45.76
38227;BME280;24026;49.446;8.576;2024-02-26T04:15:27;98630.53;;;12.35;45.66
38227;BME280;24026;49.446;8.576;2024-02-26T04:17:48;98633.19;;;12.35;45.95
38227;BME280;24026;49.446;8.576;2024-02-26T04:20:13;98627.06;;;12.35;45.77
38227;BME280;24026;49.446;8.576;2024-02-26T04:22:34;98624.41;;;12.35;45.80
38227;BME280;24026;49.446;8.576;2024-02-26T04:24:54;98620.94;;;12.34;46.17
38227;BME280;24026;49.446;8.576;2024-02-26T04:27:15;98618.56;;;12.33;46.07
38227;BME280;24026;49.446;8.576;2024-02-26T04:29:35;98612.47;;;12.32;46.00
38227;BME280;24026;49.446;8.576;2024-02-26T04:31:55;98614.34;;;12.32;46.13
38227;BME280;24026;49.446;8.576;2024-02-26T04:34:16;98610.91;;;12.31;46.22
38227;BME280;24026;49.446;8.576;2024-02-26T04:36:36;98614.34;;;12.32;46.31
38227;BME280;24026;49.446;8.576;2024-02-26T04:38:56;98614.34;;;12.32;46.32
38227;BME280;24026;49.446;8.576;2024-02-26T04:41:17;98612.75;;;12.31;46.58
38227;BME280;24026;49.446;8.576;2024-02-26T04:43:37;98606.66;;;12.30;46.41
38227;BME280;24026;49.446;8.576;2024-02-26T04:46:01;98609.31;;;12.30;46.66
38227;BME280;24026;49.446;8.576;2024-02-26T04:48:21;98610.38;;;12.29;46.56
38227;BME280;24026;49.446;8.576;2024-02-26T04:50:43;98603.19;;;12.30;46.69
38227;BME280;24026;49.446;8.576;2024-02-26T04:53:03;98600.53;;;12.30;46.59
38227;BME280;24026;49.446;8.576;2024-02-26T04:55:24;98602.09;;;12.31;46.92
38227;BME280;24026;49.446;8.576;2024-02-26T04:57:44;98605.88;;;12.30;46.88
38227;BME280;24026;49.446;8.576;2024-02-26T05:00:05;98610.38;;;12.29;46.96
38227;BME280;24026;49.446;8.576;2024-02-26T05:02:26;98603.50;;;12.28;46.83
38227;BME280;24026;49.446;8.576;2024-02-26T05:04:46;98597.34;;;12.28;46.93
38227;BME280;24026;49.446;8.576;2024-02-26T05:07:07;98600.84;;;12.28;47.12
38227;BME280;24026;49.446;8.576;2024-02-26T05:09:27;98599.25;;;12.27;47.17
38227;BME280;24026;49.446;8.576;2024-02-26T05:11:48;98605.34;;;12.28;47.26
38227;BME280;24026;49.446;8.576;2024-02-26T05:14:08;98610.97;;;12.26;47.25
38227;BME280;24026;49.446;8.576;2024-02-26T05:16:28;98601.91;;;12.27;47.15
38227;BME280;24026;49.446;8.576;2024-02-26T05:18:51;98607.22;;;12.27;47.25
38227;BME280;24026;49.446;8.576;2024-02-26T05:21:11;98601.13;;;12.27;47.42
38227;BME280;24026;49.446;8.576;2024-02-26T05:23:32;98606.44;;;12.27;47.67
38227;BME280;24026;49.446;8.576;2024-02-26T05:25:52;98600.31;;;12.26;47.44
38227;BME280;24026;49.446;8.576;2024-02-26T05:28:13;98610.69;;;12.28;47.53
38227;BME280;24026;49.446;8.576;2024-02-26T05:30:35;98612.56;;;12.27;47.69
38227;BME280;24026;49.446;8.576;2024-02-26T05:32:56;98614.75;;;12.25;47.56
38227;BME280;24026;49.446;8.576;2024-02-26T05:35:16;98616.28;;;12.26;47.85
38227;BME280;24026;49.446;8.576;2024-02-26T05:37:38;98615.50;;;12.26;47.71
38227;BME280;24026;49.446;8.576;2024-02-26T05:39:59;98616.28;;;12.26;47.85
38227;BME280;24026;49.446;8.576;2024-02-26T05:42:20;98624.28;;;12.26;48.01
38227;BME280;24026;49.446;8.576;2024-02-26T05:44:41;98624.28;;;12.26;48.09
38227;BME280;24026;49.446;8.576;2024-02-26T05:47:01;98623.50;;;12.26;47.99
38227;BME280;24026;49.446;8.576;2024-02-26T05:49:22;98618.97;;;12.26;48.11
38227;BME280;24026;49.446;8.576;2024-02-26T05:51:44;98618.97;;;12.26;48.15
38227;BME280;24026;49.446;8.576;2024-02-26T05:54:04;98626.94;;;12.26;48.24
38227;BME280;24026;49.446;8.576;2024-02-26T05:56:25;98629.63;;;12.26;48.05
38227;BME280;24026;49.446;8.576;2024-02-26T05:58:45;98626.16;;;12.26;48.16
38227;BME280;24026;49.446;8.576;2024-02-26T06:01:08;98641.09;;;12.27;48.07
38227;BME280;24026;49.446;8.576;2024-02-26T06:03:29;98649.84;;;12.27;48.37
38227;BME280;24026;49.446;8.576;2024-02-26T06:05:50;98647.19;;;12.27;48.41
38227;BME280;24026;49.446;8.576;2024-02-26T06:08:11;98655.66;;;12.29;48.48
38227;BME280;24026;49.446;8.576;2024-02-26T06:10:32;98651.16;;;12.30;48.51
38227;BME280;24026;49.446;8.576;2024-02-26T06:12:53;98659.94;;;12.30;48.44
38227;BME280;24026;49.446;8.576;2024-02-26T06:15:14;98669.50;;;12.31;48.34
38227;BME280;24026;49.446;8.576;2024-02-26T06:17:36;98674.50;;;12.33;48.32
38227;BME280;24026;49.446;8.576;2024-02-26T06:19:56;98688.34;;;12.35;48.33
38227;BME280;24026;49.446;8.576;2024-02-26T06:22:18;98683.03;;;12.35;48.49
38227;BME280;24026;49.446;8.576;2024-02-26T06:24:38;98695.25;;;12.36;48.68
38227;BME280;24026;49.446;8.576;2024-02-26T06:27:03;98702.16;;;12.37;48.89
38227;BME280;24026;49.446;8.576;2024-02-26T06:29:23;98703.75;;;12.38;48.60
38227;BME280;24026;49.446;8.576;2024-02-26T06:31:44;98709.38;;;12.36;48.75
38227;BME280;24026;49.446;8.576;2024-02-26T06:34:04;98720.53;;;12.38;49.17
38227;BME280;24026;49.446;8.576;2024-02-26T06:36:24;98726.63;;;12.39;48.93
38227;BME280;24026;49.446;8.576;2024-02-26T06:38:51;98729.00;;;12.40;48.88
38227;BME280;24026;49.446;8.576;2024-02-26T06:41:15;98729.00;;;12.40;49.18
38227;BME280;24026;49.446;8.576;2024-02-26T06:43:35;98729.78;;;12.41;49.32
38227;BME280;24026;49.446;8.576;2024-02-26T06:45:56;98730.59;;;12.41;49.60
38227;BME280;24026;49.446;8.576;2024-02-26T06:48:16;98731.38;;;12.42;49.54
38227;BME280;24026;49.446;8.576;2024-02-26T06:50:37;98742.81;;;12.42;49.59
38227;BME280;24026;49.446;8.576;2024-02-26T06:52:57;98743.34;;;12.45;50.12
38227;BME280;24026;49.446;8.576;2024-02-26T06:55:18;98738.00;;;12.45;49.86
38227;BME280;24026;49.446;8.576;2024-02-26T06:57:38;98754.47;;;12.47;49.89
38227;BME280;24026;49.446;8.576;2024-02-26T06:59:59;98748.06;;;12.48;50.24
38227;BME280;24026;49.446;8.576;2024-02-26T07:02:19;98750.44;;;12.49;50.29
38227;BME280;24026;49.446;8.576;2024-02-26T07:04:39;98747.47;;;12.51;50.26
38227;BME280;24026;49.446;8.576;2024-02-26T07:07:00;98749.06;;;12.52;50.58
38227;BME280;24026;49.446;8.576;2024-02-26T07:09:21;98747.19;;;12.52;50.62
38227;BME280;24026;49.446;8.576;2024-02-26T07:11:41;98754.88;;;12.54;50.64
38227;BME280;24026;49.446;8.576;2024-02-26T07:14:02;98759.13;;;12.55;50.62
38227;BME280;24026;49.446;8.576;2024-02-26T07:16:23;98745.53;;;12.56;50.63
38227;BME280;24026;49.446;8.576;2024-02-26T07:18:45;98753.22;;;12.58;50.82
38227;BME280;24026;49.446;8.576;2024-02-26T07:21:06;98746.78;;;12.59;50.71
38227;BME280;24026;49.446;8.576;2024-02-26T07:23:27;98759.84;;;12.60;50.73
38227;BME280;24026;49.446;8.576;2024-02-26T07:25:47;98760.59;;;12.61;50.66
38227;BME280;24026;49.446;8.576;2024-02-26T07:28:09;98759.53;;;12.62;50.86
38227;BME280;24026;49.446;8.576;2024-02-26T07:30:30;98764.88;;;12.62;50.94
38227;BME280;24026;49.446;8.576;2024-02-26T07:32:50;98766.47;;;12.63;50.55
38227;BME280;24026;49.446;8.576;2024-02-26T07:35:11;98767.53;;;12.62;50.91
38227;BME280;24026;49.446;8.576;2024-02-26T07:37:32;98770.97;;;12.63;50.91
38227;BME280;24026;49.446;8.576;2024-02-26T07:39:52;98770.19;;;12.62;51.28
38227;BME280;24026;49.446;8.576;2024-02-26T07:42:16;98785.91;;;12.64;51.09
38227;BME280;24026;49.446;8.576;2024-02-26T07:44:36;98773.66;;;12.63;50.98
38227;BME280;24026;49.446;8.576;2024-02-26T07:46:58;98772.56;;;12.64;51.15
38227;BME280;24026;49.446;8.576;2024-02-26T07:49:19;98769.91;;;12.64;51.16
38227;BME280;24026;49.446;8.576;2024-02-26T07:51:40;98772.56;;;12.64;51.17
38227;BME280;24026;49.446;8.576;2024-02-26T07:54:00;98770.69;;;12.64;51.28
38227;BME280;24026;49.446;8.576;2024-02-26T07:56:21;98776.84;;;12.65;51.18
38227;BME280;24026;49.446;8.576;2024-02-26T07:58:42;98779.50;;;12.65;51.35
38227;BME280;24026;49.446;8.576;2024-02-26T08:01:03;98777.63;;;12.65;51.40
38227;BME280;24026;49.446;8.576;2024-02-26T08:03:23;98771.50;;;12.65;51.34
38227;BME280;24026;49.446;8.576;2024-02-26T08:05:44;98767.72;;;12.66;51.22
38227;BME280;24026;49.446;8.576;2024-02-26T08:08:05;98768.50;;;12.66;51.26
38227;BME280;24026;49.446;8.576;2024-02-26T08:10:26;98769.31;;;12.67;51.34
38227;BME280;24026;49.446;8.576;2024-02-26T08:12:47;98771.69;;;12.68;51.31
38227;BME280;24026;49.446;8.576;2024-02-26T08:15:08;98774.38;;;12.68;51.19
38227;BME280;24026;49.446;8.576;2024-02-26T08:17:29;98778.59;;;12.69;51.48
38227;BME280;24026;49.446;8.576;2024-02-26T08:19:49;98774.06;;;12.70;51.34
38227;BME280;24026;49.446;8.576;2024-02-26T08:22:10;98772.19;;;12.70;51.39
38227;BME280;24026;49.446;8.576;2024-02-26T08:24:36;98779.09;;;12.71;51.26
38227;BME280;24026;49.446;8.576;2024-02-26T08:26:56;98792.13;;;12.73;51.24
38227;BME280;24026;49.446;8.576;2024-02-26T08:29:16;98794.50;;;12.74;51.37
38227;BME280;24026;49.446;8.576;2024-02-26T08:31:37;98791.53;;;12.76;51.36
38227;BME280;24026;49.446;8.576;2024-02-26T08:33:59;98791.25;;;12.77;51.37
38227;BME280;24026;49.446;8.576;2024-02-26T08:36:21;98790.94;;;12.79;51.30
38227;BME280;24026;49.446;8.576;2024-02-26T08:38:43;98789.88;;;12.80;51.25
38227;BME280;24026;49.446;8.576;2024-02-26T08:41:04;98794.91;;;12.82;51.38
38227;BME280;24026;49.446;8.576;2024-02-26T08:43:24;98788.47;;;12.83;51.43
38227;BME280;24026;49.446;8.576;2024-02-26T08:45:45;98784.75;;;12.84;51.25
38227;BME280;24026;49.446;8.576;2024-02-26T08:48:06;98775.66;;;12.85;51.32
38227;BME280;24026;49.446;8.576;2024-02-26T08:50:27;98776.44;;;12.85;51.50
38227;BME280;24026;49.446;8.576;2024-02-26T08:52:48;98784.16;;;12.87;51.41
38227;BME280;24026;49.446;8.576;2024-02-26T08:55:12;98782.28;;;12.87;51.31
38227;BME280;24026;49.446;8.576;2024-02-26T08:57:36;98790.75;;;12.89;51.40
38227;BME280;24026;49.446;8.576;2024-02-26T09:05:34;98797.69;;;12.90;51.23
38227;BME280;24026;49.446;8.576;2024-02-26T09:07:55;98801.13;;;12.91;51.34
38227;BME280;24026;49.446;8.576;2024-02-26T09:10:16;98793.63;;;12.93;51.53
38227;BME280;24026;49.446;8.576;2024-02-26T09:12:37;98805.88;;;12.94;51.33
38227;BME280;24026;49.446;8.576;2024-02-26T09:14:59;98802.91;;;12.95;51.21
38227;BME280;24026;49.446;8.576;2024-02-26T09:17:19;98810.91;;;12.95;51.29
38227;BME280;24026;49.446;8.576;2024-02-26T09:19:39;98806.88;;;12.98;51.50
38227;BME280;24026;49.446;8.576;2024-02-26T09:22:01;98807.66;;;12.98;51.46
38227;BME280;24026;49.446;8.576;2024-02-26T09:24:22;98803.91;;;13.00;51.38
38227;BME280;24026;49.446;8.576;2024-02-26T09:26:42;98813.50;;;13.01;51.36
38227;BME280;24026;49.446;8.576;2024-02-26T09:29:04;98815.88;;;13.02;51.15
38227;BME280;24026;49.446;8.576;2024-02-26T09:31:24;98818.53;;;13.02;51.60
38227;BME280;24026;49.446;8.576;2024-02-26T09:33:44;98820.13;;;13.03;51.45
38227;BME280;24026;49.446;8.576;2024-02-26T09:36:06;98820.91;;;13.04;51.60
38227;BME280;24026;49.446;8.576;2024-02-26T09:38:27;98819.84;;;13.05;51.40
38227;BME280;24026;49.446;8.576;2024-02-26T09:40:47;98828.31;;;13.07;51.39
38227;BME280;24026;49.446;8.576;2024-02-26T09:43:10;98824.56;;;13.08;51.53
38227;BME280;24026;49.446;8.576;2024-02-26T09:45:34;98826.94;;;13.09;51.32
38227;BME280;24026;49.446;8.576;2024-02-26T09:47:57;98825.84;;;13.10;51.49
38227;BME280;24026;49.446;8.576;2024-02-26T09:50:19;98828.22;;;13.12;51.43
38227;BME280;24026;49.446;8.576;2024-02-26T09:52:43;98832.16;;;13.14;51.39
38227;BME280;24026;49.446;8.576;2024-02-26T09:55:06;98842.53;;;13.16;51.31
38227;BME280;24026;49.446;8.576;2024-02-26T09:57:29;98835.34;;;13.16;51.45
38227;BME280;24026;49.446;8.576;2024-02-26T09:59:53;98839.28;;;13.19;51.19
38227;BME280;24026;49.446;8.576;2024-02-26T10:02:24;98840.88;;;13.20;51.36
38227;BME280;24026;49.446;8.576;2024-02-26T10:04:46;98832.59;;;13.22;51.25
38227;BME280;24026;49.446;8.576;2024-02-26T10:07:11;98827.72;;;13.24;51.35
38227;BME280;24026;49.446;8.576;2024-02-26T10:09:33;98829.31;;;13.25;51.21
38227;BME280;24026;49.446;8.576;2024-02-26T10:11:55;98829.00;;;13.26;51.19
38227;BME280;24026;49.446;8.576;2024-02-26T10:14:19;98832.97;;;13.29;51.18
38227;BME280;24026;49.446;8.576;2024-02-26T10:16:44;98829.22;;;13.30;51.16
38227;BME280;24026;49.446;8.576;2024-02-26T10:19:06;98828.63;;;13.33;51.10
38227;BME280;24026;49.446;8.576;2024-02-26T10:21:27;98842.50;;;13.35;51.08
38227;BME280;24026;49.446;8.576;2024-02-26T10:23:49;98832.31;;;13.37;51.14
38227;BME280;24026;49.446;8.576;2024-02-26T10:26:12;98835.47;;;13.39;50.95
38227;BME280;24026;49.446;8.576;2024-02-26T10:28:35;98838.63;;;13.41;51.02
38227;BME280;24026;49.446;8.576;2024-02-26T10:30:58;98847.13;;;13.43;51.13
38227;BME280;24026;49.446;8.576;2024-02-26T10:33:18;98845.25;;;13.44;51.14
38227;BME280;24026;49.446;8.576;2024-02-26T10:35:39;98844.66;;;13.47;50.85
38227;BME280;24026;49.446;8.576;2024-02-26T10:38:00;98847.81;;;13.49;51.00
38227;BME280;24026;49.446;8.576;2024-02-26T10:40:21;98844.06;;;13.50;50.88
38227;BME280;24026;49.446;8.576;2024-02-26T10:42:42;98843.78;;;13.51;50.84
38227;BME280;24026;49.446;8.576;2024-02-26T10:45:07;98840.78;;;13.53;50.90
38227;BME280;24026;49.446;8.576;2024-02-26T10:47:29;98845.81;;;13.55;50.94
38227;BME280;24026;49.446;8.576;2024-02-26T10:49:50;98849.00;;;13.57;50.88
38227;BME280;24026;49.446;8.576;2024-02-26T10:52:11;98845.22;;;13.58;50.85
38227;BME280;24026;49.446;8.576;2024-02-26T10:54:33;98838.81;;;13.59;50.80
38227;BME280;24026;49.446;8.576;2024-02-26T10:56:56;98845.41;;;13.61;50.63
38227;BME280;24026;49.446;8.576;2024-02-26T10:59:22;98855.81;;;13.63;50.64
38227;BME280;24026;49.446;8.576;2024-02-26T11:01:42;98861.66;;;13.65;50.58
38227;BME280;24026;49.446;8.576;2024-02-26T11:04:08;98867.47;;;13.67;50.58
38227;BME280;24026;49.446;8.576;2024-02-26T11:06:29;98874.38;;;13.68;50.59
38227;BME280;24026;49.446;8.576;2024-02-26T11:08:50;98870.34;;;13.70;50.57
38227;BME280;24026;49.446;8.576;2024-02-26T11:11:11;98871.94;;;13.71;50.47
38227;BME280;24026;49.446;8.576;2024-02-26T11:13:36;98877.47;;;13.75;50.40
38227;BME280;24026;49.446;8.576;2024-02-26T11:16:01;98877.16;;;13.77;50.50
38227;BME280;24026;49.446;8.576;2024-02-26T11:18:22;98881.09;;;13.79;50.39
38227;BME280;24026;49.446;8.576;2024-02-26T11:20:44;98877.06;;;13.82;50.44
38227;BME280;24026;49.446;8.576;2024-02-26T11:23:06;98882.09;;;13.83;50.37
38227;BME280;24026;49.446;8.576;2024-02-26T11:25:29;98876.13;;;13.86;50.23
38227;BME280;24026;49.446;8.576;2024-02-26T11:27:52;98879.31;;;13.88;50.26
38227;BME280;24026;49.446;8.576;2024-02-26T11:30:15;98881.41;;;13.92;50.20
38227;BME280;24026;49.446;8.576;2024-02-26T11:32:38;98885.34;;;13.94;50.08
38227;BME280;24026;49.446;8.576;2024-02-26T11:35:00;98883.97;;;13.97;50.07
38227;BME280;24026;49.446;8.576;2024-02-26T11:37:21;98874.53;;;13.99;49.97
38227;BME280;24026;49.446;8.576;2024-02-26T11:39:42;98880.38;;;14.01;49.98
38227;BME280;24026;49.446;8.576;2024-02-26T11:42:09;98880.06;;;14.03;49.94
38227;BME280;24026;49.446;8.576;2024-02-26T11:44:32;98888.25;;;14.06;49.85
38227;BME280;24026;49.446;8.576;2024-02-26T11:46:53;98881.84;;;14.07;49.62
38227;BME280;24026;49.446;8.576;2024-02-26T11:51:51;98888.97;;;14.12;49.34
38227;BME280;24026;49.446;8.576;2024-02-26T11:54:12;98888.38;;;14.15;49.64
38227;BME280;24026;49.446;8.576;2024-02-26T11:56:33;98888.84;;;14.17;49.39
38227;BME280;24026;49.446;8.576;2024-02-26T11:59:09;98883.50;;;14.17;49.53
38227;BME280;24026;49.446;8.576;2024-02-26T12:01:40;98885.09;;;14.18;49.48
38227;BME280;24026;49.446;8.576;2024-02-26T12:04:24;98885.09;;;14.18;49.53
38227;BME280;24026;49.446;8.576;2024-02-26T12:06:57;98893.88;;;14.19;49.54
38227;BME280;24026;49.446;8.576;2024-02-26T12:09:40;98893.59;;;14.20;49.35
38227;BME280;24026;49.446;8.576;2024-02-26T12:12:06;98894.38;;;14.21;49.55
38227;BME280;24026;49.446;8.576;2024-02-26T12:19:35;98893.28;;;14.22;49.43
38227;BME280;24026;49.446;8.576;2024-02-26T12:22:02;98904.75;;;14.22;49.43
38227;BME280;24026;49.446;8.576;2024-02-26T12:24:22;98905.84;;;14.21;49.38
38227;BME280;24026;49.446;8.576;2024-02-26T12:26:43;98910.41;;;14.21;49.52
38227;BME280;24026;49.446;8.576;2024-02-26T12:29:03;98903.97;;;14.22;49.36
38227;BME280;24026;49.446;8.576;2024-02-26T12:31:24;98907.44;;;14.22;49.76
38227;BME280;24026;49.446;8.576;2024-02-26T12:33:44;98902.09;;;14.22;49.44
38227;BME280;24026;49.446;8.576;2024-02-26T12:36:05;98912.78;;;14.22;49.73
38227;BME280;24026;49.446;8.576;2024-02-26T12:38:26;98914.38;;;14.23;49.65
38227;BME280;24026;49.446;8.576;2024-02-26T12:40:47;98909.03;;;14.23;49.74
38227;BME280;24026;49.446;8.576;2024-02-26T12:43:09;98910.59;;;14.24;49.64